Time;durP1;ratioP1;P1;durP2;ratioP2;P2;SDS_P1;SDS_P2;PMS_P1;PMS_P2;Temp;Humidity;BMP_temperature;BMP_pressure;BME280_temperature;BME280_humidity;BME280_pressure;Samples;Min_cycle;Max_cycle;Signal;HPM_P1;HPM_P2
2024/02/29 00:01:30;;;;;;;28.20;19.50;;;;;;;8.85;96.17;100770.70;130657;1264;107642;-82
2024/02/29 00:04:36;;;;;;;28.70;18.60;;;;;;;8.85;96.12;100773.20;130699;1274;106592;-83
2024/02/29 00:07:42;;;;;;;24.20;14.90;;;;;;;8.86;96.17;100775.71;130797;1264;107506;-86
2024/02/29 00:10:48;;;;;;;27.70;18.00;;;;;;;8.87;95.94;100776.86;130568;1264;107461;-84
2024/02/29 00:13:54;;;;;;;25.30;17.60;;;;;;;8.89;96.00;100773.92;130539;1273;109127;-84
2024/02/29 00:17:01;;;;;;;26.70;17.00;;;;;;;8.91;96.04;100778.36;130542;1263;105295;-83
2024/02/29 00:20:09;;;;;;;29.00;19.40;;;;;;;8.91;95.68;100777.95;130557;1264;106671;-83
2024/02/29 00:23:14;;;;;;;32.30;20.10;;;;;;;8.87;95.64;100775.27;130597;1264;107501;-83
2024/02/29 00:26:20;;;;;;;41.60;25.30;;;;;;;8.80;95.58;100776.27;130621;1263;106494;-83
2024/02/29 00:29:28;;;;;;;34.50;21.10;;;;;;;8.74;95.62;100778.50;130573;1263;107261;-85
2024/02/29 00:32:34;;;;;;;27.40;16.50;;;;;;;8.73;95.72;100779.88;130571;1257;108650;-86
2024/02/29 00:35:39;;;;;;;34.90;19.60;;;;;;;8.66;95.31;100778.25;130837;1257;109100;-86
2024/02/29 00:38:45;;;;;;;32.80;20.40;;;;;;;8.60;95.56;100776.98;130789;1263;106682;-85
2024/02/29 00:41:51;;;;;;;34.10;21.20;;;;;;;8.56;95.68;100774.86;130809;1257;107645;-85
2024/02/29 00:44:56;;;;;;;34.10;21.60;;;;;;;8.55;95.87;100775.70;130732;1262;108121;-83
2024/02/29 00:48:02;;;;;;;31.50;20.60;;;;;;;8.59;96.09;100776.77;130619;1263;108428;-84
2024/02/29 00:51:08;;;;;;;30.40;18.80;;;;;;;8.62;95.93;100773.44;130646;1264;106504;-83
2024/02/29 00:54:13;;;;;;;29.60;18.30;;;;;;;8.65;95.79;100775.15;130667;1261;107697;-83
2024/02/29 00:57:19;;;;;;;26.20;17.40;;;;;;;8.68;95.82;100773.03;130678;1258;106256;-83
2024/02/29 01:00:24;;;;;;;27.30;17.60;;;;;;;8.72;95.95;100769.81;130622;1262;107602;-84
2024/02/29 01:03:30;;;;;;;31.90;20.00;;;;;;;8.78;95.88;100768.44;130666;1263;107650;-83
2024/02/29 01:06:36;;;;;;;30.10;20.20;;;;;;;8.81;95.56;100766.38;130459;1264;109072;-83
2024/02/29 01:09:41;;;;;;;32.90;21.10;;;;;;;8.78;95.33;100765.92;130550;1263;107492;-84
2024/02/29 01:12:47;;;;;;;29.00;18.80;;;;;;;8.75;95.46;100767.23;130605;1257;108560;-84
2024/02/29 01:15:53;;;;;;;27.20;17.30;;;;;;;8.76;95.38;100768.11;130608;1257;105656;-84
2024/02/29 01:19:00;;;;;;;25.50;15.70;;;;;;;8.77;95.49;100772.43;130596;1263;107706;-84
2024/02/29 01:22:06;;;;;;;29.20;18.20;;;;;;;8.80;95.47;100770.35;130607;1257;108510;-84
2024/02/29 01:25:13;;;;;;;25.40;17.50;;;;;;;8.84;95.52;100769.01;130550;1257;108656;-85
2024/02/29 01:28:19;;;;;;;27.00;17.50;;;;;;;8.87;95.37;100773.20;130481;1263;138205;-84
2024/02/29 01:31:24;;;;;;;27.10;17.60;;;;;;;8.88;95.20;100765.65;130565;1258;108640;-85
2024/02/29 01:34:30;;;;;;;28.50;18.70;;;;;;;8.87;95.13;100766.58;130628;1263;107510;-85
2024/02/29 01:37:35;;;;;;;28.30;18.00;;;;;;;8.85;95.06;100768.91;130651;1263;108544;-84
2024/02/29 01:40:45;;;;;;;30.40;18.00;;;;;;;8.83;95.16;100767.13;130559;1264;107659;-84
2024/02/29 01:43:54;;;;;;;27.90;17.70;;;;;;;8.84;95.00;100767.58;130626;1258;108778;-84
2024/02/29 01:47:01;;;;;;;29.40;18.90;;;;;;;8.85;95.18;100771.03;130551;1258;106839;-84
2024/02/29 01:50:11;;;;;;;26.20;18.30;;;;;;;8.84;94.78;100767.55;130610;1264;106184;-83
2024/02/29 01:53:17;;;;;;;32.30;19.60;;;;;;;8.81;94.88;100769.44;130622;1263;108613;-85
2024/02/29 01:56:23;;;;;;;28.60;18.60;;;;;;;8.78;94.96;100767.59;130609;1257;106693;-83
2024/02/29 01:59:29;;;;;;;30.90;17.60;;;;;;;8.76;95.09;100768.40;130650;1262;107623;-83
2024/02/29 02:02:37;;;;;;;27.80;16.60;;;;;;;8.75;95.09;100761.61;130585;1262;107675;-83
2024/02/29 02:05:44;;;;;;;25.80;17.20;;;;;;;8.76;95.16;100762.54;130647;1262;106411;-85
2024/02/29 02:08:49;;;;;;;28.50;18.50;;;;;;;8.78;95.06;100761.29;130568;1262;106452;-83
2024/02/29 02:11:55;;;;;;;30.80;20.40;;;;;;;8.79;94.93;100757.34;130591;1257;106654;-83
2024/02/29 02:15:02;;;;;;;29.70;19.10;;;;;;;8.75;94.77;100759.15;130576;1257;108537;-84
2024/02/29 02:18:08;;;;;;;27.90;17.50;;;;;;;8.73;95.01;100756.80;130608;1262;106413;-83
2024/02/29 02:21:14;;;;;;;22.90;15.30;;;;;;;8.75;94.99;100759.98;130614;1260;107781;-84
2024/02/29 02:24:20;;;;;;;26.60;17.10;;;;;;;8.78;94.97;100763.31;130545;1263;108118;-83
2024/02/29 02:27:26;;;;;;;23.80;17.10;;;;;;;8.80;94.78;100762.77;130545;1264;108703;-83
2024/02/29 02:30:31;;;;;;;25.10;17.70;;;;;;;8.80;94.51;100759.91;130574;1259;107163;-82
2024/02/29 02:33:37;;;;;;;25.90;17.10;;;;;;;8.75;94.61;100762.11;130573;1257;106495;-82
2024/02/29 02:36:43;;;;;;;22.60;14.20;;;;;;;8.72;94.09;100759.52;130567;1262;106953;-83
2024/02/29 02:39:48;;;;;;;18.50;11.50;;;;;;;8.70;94.00;100759.41;130529;1264;107542;-82
2024/02/29 02:42:54;;;;;;;18.80;10.50;;;;;;;8.65;93.70;100763.10;130545;1258;108396;-83
2024/02/29 02:45:59;;;;;;;22.80;12.10;;;;;;;8.62;93.84;100764.40;130551;1262;106978;-84
2024/02/29 02:49:05;;;;;;;30.40;18.90;;;;;;;8.64;93.87;100757.50;130570;1263;108613;-83
2024/02/29 02:52:11;;;;;;;60.40;35.10;;;;;;;8.62;93.68;100758.21;130572;1261;107129;-85
2024/02/29 02:55:17;;;;;;;32.80;18.40;;;;;;;8.58;93.64;100756.27;130571;1257;107592;-84
2024/02/29 02:58:22;;;;;;;25.80;15.50;;;;;;;8.58;93.68;100754.48;130616;1262;107599;-84
2024/02/29 03:01:28;;;;;;;30.80;18.50;;;;;;;8.58;93.72;100754.67;130559;1257;108605;-85
2024/02/29 03:04:34;;;;;;;21.30;12.20;;;;;;;8.57;93.76;100756.88;130598;1261;107496;-83
2024/02/29 03:07:40;;;;;;;17.60;11.10;;;;;;;8.54;93.72;100758.54;130533;1257;106872;-84
2024/02/29 03:10:46;;;;;;;18.90;12.30;;;;;;;8.55;93.71;100762.51;130614;1257;108629;-83
2024/02/29 03:13:53;;;;;;;19.60;12.50;;;;;;;8.56;93.49;100753.39;130591;1258;107781;-82
2024/02/29 03:16:58;;;;;;;17.40;11.80;;;;;;;8.58;93.28;100752.38;130593;1259;107931;-83
2024/02/29 03:20:11;;;;;;;20.70;13.00;;;;;;;8.57;93.33;100752.45;130607;1262;108763;-83
2024/02/29 03:23:20;;;;;;;20.00;12.60;;;;;;;8.54;93.22;100751.59;130648;1262;108492;-83
2024/02/29 03:26:25;;;;;;;20.60;12.50;;;;;;;8.53;93.29;100752.23;130611;1258;108650;-83
2024/02/29 03:29:32;;;;;;;18.70;11.30;;;;;;;8.51;93.58;100751.69;130536;1262;106879;-83
2024/02/29 03:32:38;;;;;;;17.40;9.90;;;;;;;8.51;93.63;100753.08;130620;1262;107111;-83
2024/02/29 03:35:43;;;;;;;19.00;11.70;;;;;;;8.53;93.74;100752.05;130545;1262;108620;-84
2024/02/29 03:38:49;;;;;;;18.60;11.60;;;;;;;8.57;93.67;100752.59;130614;1260;108428;-83
2024/02/29 03:41:55;;;;;;;18.30;12.10;;;;;;;8.59;93.53;100755.08;130565;1257;108813;-83
2024/02/29 03:45:01;;;;;;;22.50;14.90;;;;;;;8.61;93.45;100751.90;130582;1262;108773;-83
2024/02/29 03:48:07;;;;;;;23.10;14.30;;;;;;;8.62;93.47;100747.38;130562;1262;108628;-83
2024/02/29 03:51:13;;;;;;;19.20;11.70;;;;;;;8.61;93.45;100744.80;130559;1262;107392;-84
2024/02/29 03:54:19;;;;;;;43.80;20.60;;;;;;;8.58;93.33;100736.59;130634;1257;108621;-83
2024/02/29 03:57:24;;;;;;;37.30;22.70;;;;;;;8.55;93.26;100732.92;130549;1260;106391;-84
2024/02/29 04:00:31;;;;;;;30.30;18.90;;;;;;;8.55;93.46;100730.62;130612;1262;108488;-82
2024/02/29 04:03:36;;;;;;;28.80;18.80;;;;;;;8.56;93.52;100733.14;130628;1257;107188;-84
2024/02/29 04:06:43;;;;;;;23.80;14.50;;;;;;;8.59;93.42;100734.58;130491;1259;106934;-83
2024/02/29 04:09:48;;;;;;;22.10;14.40;;;;;;;8.62;93.33;100738.91;130598;1263;108000;-84
2024/02/29 04:12:54;;;;;;;23.40;13.80;;;;;;;8.63;93.34;100740.93;130522;1263;108490;-84
2024/02/29 04:15:59;;;;;;;16.50;9.90;;;;;;;8.60;93.42;100739.19;130554;1263;108669;-84
2024/02/29 04:19:06;;;;;;;19.10;11.60;;;;;;;8.64;93.40;100739.27;130508;1263;108321;-84
2024/02/29 04:22:11;;;;;;;19.50;12.40;;;;;;;8.67;93.14;100741.66;130592;1264;106436;-83
2024/02/29 04:25:22;;;;;;;20.70;12.40;;;;;;;8.68;92.88;100743.58;130595;1259;107118;-83
2024/02/29 04:28:28;;;;;;;20.60;12.80;;;;;;;8.65;93.28;100743.27;130608;1263;106455;-83
2024/02/29 04:31:33;;;;;;;17.90;11.50;;;;;;;8.65;93.17;100745.71;130633;1264;107330;-83
2024/02/29 04:34:39;;;;;;;17.50;11.90;;;;;;;8.63;93.09;100751.38;130665;1262;108697;-85
2024/02/29 04:37:44;;;;;;;19.40;11.20;;;;;;;8.58;93.09;100743.98;130605;1257;108486;-83
2024/02/29 04:40:50;;;;;;;17.90;9.80;;;;;;;8.54;93.02;100740.11;130610;1262;106732;-84
2024/02/29 04:43:56;;;;;;;18.40;11.80;;;;;;;8.52;93.10;100742.70;130568;1262;108644;-84
2024/02/29 04:47:02;;;;;;;22.30;13.10;;;;;;;8.51;93.01;100740.52;130570;1257;108552;-83
2024/02/29 04:50:08;;;;;;;18.80;12.30;;;;;;;8.52;93.11;100746.17;130634;1262;108698;-84
2024/02/29 04:53:14;;;;;;;20.50;12.80;;;;;;;8.54;93.05;100742.60;130582;1257;107828;-84
2024/02/29 04:56:20;;;;;;;20.00;12.70;;;;;;;8.55;93.10;100743.05;130639;1258;107204;-84
2024/02/29 04:59:26;;;;;;;36.80;20.70;;;;;;;8.52;92.95;100739.25;130689;1258;107730;-83
2024/02/29 05:02:33;;;;;;;27.90;15.10;;;;;;;8.45;92.95;100739.77;130650;1259;107725;-83
2024/02/29 05:05:38;;;;;;;22.90;12.10;;;;;;;8.42;93.01;100737.35;130713;1258;106669;-83
2024/02/29 05:08:45;;;;;;;27.60;14.90;;;;;;;8.41;92.79;100734.23;130571;1257;109778;-83
2024/02/29 05:11:50;;;;;;;21.50;13.80;;;;;;;8.40;92.52;100730.25;130610;1262;108660;-84
2024/02/29 05:14:56;;;;;;;22.60;15.40;;;;;;;8.38;92.43;100734.80;130592;1262;106752;-84
2024/02/29 05:18:02;;;;;;;18.20;12.30;;;;;;;8.35;92.16;100737.57;130570;1257;107628;-83
2024/02/29 05:21:07;;;;;;;18.80;11.90;;;;;;;8.34;92.26;100741.95;130618;1257;107636;-83
2024/02/29 05:24:13;;;;;;;20.00;12.60;;;;;;;8.33;92.20;100738.78;130689;1262;107592;-83
2024/02/29 05:27:19;;;;;;;17.20;11.40;;;;;;;8.30;92.21;100739.06;130591;1262;109060;-83
2024/02/29 05:30:25;;;;;;;15.10;10.00;;;;;;;8.27;92.21;100742.64;130564;1257;109398;-83
2024/02/29 05:33:30;;;;;;;18.20;12.30;;;;;;;8.27;92.38;100743.33;130627;1262;108127;-83
2024/02/29 05:36:36;;;;;;;21.40;13.80;;;;;;;8.30;92.34;100746.13;130642;1260;108696;-83
2024/02/29 05:39:43;;;;;;;23.10;14.00;;;;;;;8.32;92.39;100747.09;130647;1262;107613;-86
2024/02/29 05:42:48;;;;;;;20.50;13.30;;;;;;;8.33;92.24;100744.99;130603;1262;107817;-83
2024/02/29 05:45:54;;;;;;;23.50;14.50;;;;;;;8.34;92.10;100743.89;130590;1261;107651;-83
2024/02/29 05:49:00;;;;;;;20.50;13.70;;;;;;;8.30;91.94;100743.31;130600;1258;107139;-84
2024/02/29 05:52:06;;;;;;;20.90;14.30;;;;;;;8.26;92.15;100747.46;130626;1262;107153;-83
2024/02/29 05:55:12;;;;;;;20.20;12.10;;;;;;;8.25;92.07;100752.34;130595;1257;107155;-83
2024/02/29 05:58:18;;;;;;;19.00;13.20;;;;;;;8.25;92.03;100754.84;130661;1262;107071;-84
2024/02/29 06:01:24;;;;;;;20.30;14.30;;;;;;;8.27;92.11;100755.44;130631;1274;106304;-83
2024/02/29 06:04:29;;;;;;;22.30;15.00;;;;;;;8.28;92.09;100752.86;130662;1263;107943;-82
2024/02/29 06:07:36;;;;;;;21.70;14.60;;;;;;;8.31;92.00;100753.88;130594;1258;106407;-82
2024/02/29 06:10:42;;;;;;;20.90;14.50;;;;;;;8.31;92.07;100752.28;130581;1262;107692;-83
2024/02/29 06:13:48;;;;;;;30.90;18.40;;;;;;;8.28;91.86;100753.02;130623;1262;106424;-83
2024/02/29 06:16:54;;;;;;;39.10;19.00;;;;;;;8.26;91.98;100753.70;130520;1262;108612;-82
2024/02/29 06:19:59;;;;;;;28.50;14.80;;;;;;;8.22;91.98;100753.66;130554;1262;108184;-85
2024/02/29 06:23:06;;;;;;;24.90;16.00;;;;;;;8.22;91.81;100756.58;130594;1260;107543;-83
2024/02/29 06:26:11;;;;;;;23.40;15.90;;;;;;;8.24;91.98;100755.83;130535;1274;106442;-84
2024/02/29 06:29:17;;;;;;;26.10;17.30;;;;;;;8.28;91.84;100757.30;130561;1262;108884;-82
2024/02/29 06:32:23;;;;;;;26.20;17.00;;;;;;;8.29;91.73;100755.42;130605;1262;107321;-83
2024/02/29 06:35:29;;;;;;;22.90;15.10;;;;;;;8.26;91.69;100758.13;130621;1259;109082;-83
2024/02/29 06:38:35;;;;;;;22.00;15.60;;;;;;;8.22;91.60;100760.58;130745;1262;109422;-83
2024/02/29 06:41:43;;;;;;;20.80;13.80;;;;;;;8.20;91.48;100768.02;130688;1262;107992;-83
2024/02/29 06:44:49;;;;;;;20.90;13.20;;;;;;;8.16;91.61;100777.38;130679;1257;108586;-82
2024/02/29 06:47:54;;;;;;;27.10;16.70;;;;;;;8.16;91.69;100778.45;130687;1262;108722;-82
2024/02/29 06:51:00;;;;;;;25.30;16.00;;;;;;;8.20;91.78;100773.52;130649;1262;107598;-79
2024/02/29 06:54:06;;;;;;;25.80;16.40;;;;;;;8.25;91.69;100779.10;130761;1261;106437;-81
2024/02/29 06:57:12;;;;;;;23.70;16.20;;;;;;;8.26;91.59;100777.64;130605;1262;108707;-81
2024/02/29 07:00:19;;;;;;;22.90;15.30;;;;;;;8.25;91.65;100781.59;130782;1257;108587;-81
2024/02/29 07:03:24;;;;;;;24.80;16.10;;;;;;;8.24;91.57;100783.29;130528;1262;107344;-81
2024/02/29 07:06:30;;;;;;;21.50;13.80;;;;;;;8.22;91.55;100786.30;130728;1262;107634;-81
2024/02/29 07:09:35;;;;;;;23.20;14.30;;;;;;;8.22;91.50;100788.73;130614;1264;107719;-80
2024/02/29 07:12:42;;;;;;;22.10;14.90;;;;;;;8.26;91.61;100789.52;130781;1262;106226;-83
2024/02/29 07:15:48;;;;;;;18.90;13.30;;;;;;;8.30;91.66;100791.88;130593;1262;108941;-80
2024/02/29 07:18:54;;;;;;;21.60;14.20;;;;;;;8.33;91.38;100789.46;130856;1260;107631;-80
2024/02/29 07:22:02;;;;;;;18.70;13.20;;;;;;;8.37;91.47;100793.77;130526;1264;107043;-80
2024/02/29 07:25:09;;;;;;;23.00;15.30;;;;;;;8.41;91.59;100790.11;130623;1262;108591;-80
2024/02/29 07:28:15;;;;;;;22.60;15.00;;;;;;;8.43;91.57;100791.55;130663;1262;107395;-81
2024/02/29 07:31:21;;;;;;;27.20;16.40;;;;;;;8.44;91.44;100796.92;130552;1262;108538;-81
2024/02/29 07:34:26;;;;;;;19.60;12.80;;;;;;;8.43;91.42;100798.95;130604;1257;107558;-80
2024/02/29 07:37:32;;;;;;;19.60;13.20;;;;;;;8.47;91.65;100797.25;130543;1262;108729;-80
2024/02/29 07:40:37;;;;;;;22.20;13.60;;;;;;;8.57;91.57;100795.91;130608;1262;108858;-82
2024/02/29 07:43:43;;;;;;;22.40;15.40;;;;;;;8.67;91.48;100794.55;130569;1257;107416;-80
2024/02/29 07:46:49;;;;;;;23.80;15.80;;;;;;;8.76;91.64;100794.66;130537;1257;106983;-80
2024/02/29 07:49:54;;;;;;;21.10;14.80;;;;;;;8.83;91.18;100794.98;130608;1257;108074;-80
2024/02/29 07:53:00;;;;;;;25.40;17.60;;;;;;;8.83;91.24;100797.77;130657;1257;107587;-79
2024/02/29 07:56:07;;;;;;;38.90;21.40;;;;;;;8.86;91.03;100793.14;130681;1263;106494;-80
2024/02/29 07:59:13;;;;;;;51.80;24.50;;;;;;;8.89;91.01;100790.37;130578;1259;107154;-79
2024/02/29 08:02:19;;;;;;;50.00;25.10;;;;;;;8.97;91.04;100789.18;130582;1258;108793;-79
2024/02/29 08:05:25;;;;;;;34.20;18.70;;;;;;;9.07;90.93;100784.98;130441;1262;106498;-79
2024/02/29 08:08:30;;;;;;;35.60;20.50;;;;;;;9.15;90.67;100781.84;131214;1257;108512;-81
2024/02/29 08:11:36;;;;;;;30.90;18.80;;;;;;;9.21;90.82;100779.70;130654;1262;106579;-79
2024/02/29 08:14:42;;;;;;;36.40;21.70;;;;;;;9.26;90.41;100781.07;130376;1263;106653;-79
2024/02/29 08:17:47;;;;;;;32.60;20.00;;;;;;;9.29;90.25;100781.52;130768;1262;107359;-83
2024/02/29 08:20:53;;;;;;;29.40;18.80;;;;;;;9.32;90.19;100777.91;130613;1260;108826;-80
2024/02/29 08:23:59;;;;;;;25.00;16.10;;;;;;;9.30;90.03;100770.95;131083;1260;107500;-80
2024/02/29 08:27:05;;;;;;;24.30;15.30;;;;;;;9.28;90.19;100769.35;130789;1259;106893;-80
2024/02/29 08:30:12;;;;;;;26.80;16.60;;;;;;;9.29;89.95;100768.19;130760;1262;107528;-80
2024/02/29 08:33:18;;;;;;;35.90;20.20;;;;;;;9.35;89.88;100774.59;130732;1261;106430;-80
2024/02/29 08:36:23;;;;;;;30.90;18.00;;;;;;;9.39;90.01;100770.99;130733;1262;107689;-80
2024/02/29 08:39:29;;;;;;;34.00;20.10;;;;;;;9.42;89.74;100768.84;130599;1258;108578;-79
2024/02/29 08:42:35;;;;;;;31.80;20.00;;;;;;;9.43;89.98;100771.38;130573;1261;107664;-80
2024/02/29 08:45:41;;;;;;;30.50;19.10;;;;;;;9.42;89.57;100775.59;130572;1262;108636;-79
2024/02/29 08:48:46;;;;;;;26.10;16.80;;;;;;;9.35;89.41;100776.73;130611;1257;108436;-80
2024/02/29 08:51:52;;;;;;;26.50;15.70;;;;;;;9.28;89.67;100772.35;130549;1257;106589;-80
2024/02/29 08:54:57;;;;;;;23.90;14.50;;;;;;;9.25;89.58;100778.11;130726;1257;106792;-80
2024/02/29 08:58:03;;;;;;;29.10;17.70;;;;;;;9.21;89.78;100775.58;130885;1259;107662;-81
2024/02/29 09:01:09;;;;;;;61.40;29.80;;;;;;;9.21;89.89;100775.73;130823;1262;108039;-82
2024/02/29 09:04:14;;;;;;;47.80;25.20;;;;;;;9.24;89.76;100774.48;130683;1262;105967;-79
2024/02/29 09:07:20;;;;;;;59.40;32.60;;;;;;;9.28;89.66;100772.67;130565;1258;107863;-78
2024/02/29 09:10:26;;;;;;;45.60;25.60;;;;;;;9.30;89.73;100768.52;130544;1263;107611;-79
2024/02/29 09:13:31;;;;;;;39.00;21.80;;;;;;;9.29;90.10;100768.88;130532;1259;108388;-79
2024/02/29 09:16:37;;;;;;;26.20;15.70;;;;;;;9.29;89.85;100760.34;130308;1263;108743;-79
2024/02/29 09:19:43;;;;;;;28.60;16.60;;;;;;;9.30;89.78;100759.61;130282;1264;107775;-77
2024/02/29 09:22:49;;;;;;;31.20;18.80;;;;;;;9.31;89.62;100758.11;130488;1262;106433;-84
2024/02/29 09:25:54;;;;;;;25.20;16.30;;;;;;;9.36;89.74;100759.57;130748;1260;106452;-84
2024/02/29 09:29:00;;;;;;;28.20;16.60;;;;;;;9.39;89.42;100763.23;130751;1260;108600;-79
2024/02/29 09:32:07;;;;;;;25.70;16.40;;;;;;;9.40;89.54;100759.59;130467;1259;108576;-79
2024/02/29 09:35:14;;;;;;;31.00;19.00;;;;;;;9.38;89.55;100760.45;130751;1262;107616;-81
2024/02/29 09:38:19;;;;;;;28.90;17.90;;;;;;;9.33;89.68;100763.73;130371;1257;108643;-79
2024/02/29 09:41:25;;;;;;;28.20;16.30;;;;;;;9.31;89.44;100763.97;130326;1260;107035;-80
2024/02/29 09:44:32;;;;;;;25.40;15.00;;;;;;;9.28;89.23;100766.45;130717;1262;107616;-81
2024/02/29 09:47:40;;;;;;;29.40;17.80;;;;;;;9.29;89.59;100765.56;130385;1264;107126;-80
2024/02/29 09:50:46;;;;;;;24.30;15.60;;;;;;;9.32;89.66;100763.66;130858;1261;106504;-81
2024/02/29 09:53:54;;;;;;;26.00;16.00;;;;;;;9.43;89.40;100761.64;130690;1259;106272;-83
2024/02/29 09:57:00;;;;;;;27.00;17.10;;;;;;;9.50;89.09;100756.41;130831;1257;107926;-80
2024/02/29 10:00:10;;;;;;;29.40;16.40;;;;;;;9.54;89.13;100758.02;130685;1262;107105;-80
2024/02/29 10:03:18;;;;;;;27.60;17.10;;;;;;;9.58;89.14;100752.88;130822;1258;106948;-80
2024/02/29 10:06:23;;;;;;;26.50;16.20;;;;;;;9.59;88.93;100755.27;130602;1260;108368;-78
2024/02/29 10:09:30;;;;;;;25.90;15.60;;;;;;;9.55;89.14;100751.69;130275;1262;107893;-78
2024/02/29 10:12:36;;;;;;;25.40;15.10;;;;;;;9.52;89.11;100750.89;130241;1265;108781;-80
2024/02/29 10:15:44;;;;;;;27.70;16.10;;;;;;;9.54;88.90;100750.23;130564;1259;108465;-81
2024/02/29 10:18:50;;;;;;;32.60;18.80;;;;;;;9.58;88.92;100744.94;130627;1259;106322;-80
2024/02/29 10:21:56;;;;;;;32.70;17.40;;;;;;;9.61;89.11;100742.11;132600;1259;107500;-82
2024/02/29 10:25:02;;;;;;;29.50;17.20;;;;;;;9.64;89.14;100737.44;131333;1259;106920;-83
2024/02/29 10:28:12;;;;;;;44.70;24.00;;;;;;;9.66;89.15;100730.53;131374;1262;108091;-82
2024/02/29 10:31:18;;;;;;;38.50;21.90;;;;;;;9.69;88.91;100724.59;131589;1258;108621;-82
2024/02/29 10:34:24;;;;;;;35.70;21.10;;;;;;;9.70;88.88;100717.05;131027;1259;107009;-84
2024/02/29 10:37:30;;;;;;;33.80;19.00;;;;;;;9.70;89.06;100709.37;130726;1262;108612;-82
2024/02/29 10:40:36;;;;;;;22.60;14.20;;;;;;;9.72;88.83;100706.17;130573;1259;108618;-82
2024/02/29 10:43:46;;;;;;;24.20;15.10;;;;;;;9.75;88.64;100705.08;130605;1259;106967;-82
2024/02/29 10:46:55;;;;;;;28.30;17.40;;;;;;;9.78;88.61;100703.32;130579;1259;108725;-82
2024/02/29 10:50:09;;;;;;;34.20;19.10;;;;;;;9.77;88.69;100699.14;130775;1262;107254;-84
2024/02/29 10:53:20;;;;;;;35.30;21.80;;;;;;;9.77;88.79;100698.04;130631;1259;106501;-85
2024/02/29 10:56:28;;;;;;;42.30;24.70;;;;;;;9.80;88.93;100693.36;130539;1260;108670;-85
2024/02/29 10:59:34;;;;;;;37.30;21.30;;;;;;;9.78;88.74;100686.79;130734;1262;106635;-86
2024/02/29 11:02:40;;;;;;;25.10;14.90;;;;;;;9.78;88.71;100686.27;130663;1262;107469;-86
2024/02/29 11:05:47;;;;;;;20.50;13.10;;;;;;;9.78;88.70;100683.94;130627;1262;108556;-83
2024/02/29 11:08:54;;;;;;;27.80;19.30;;;;;;;9.77;88.58;100679.05;130789;1262;107594;-83
2024/02/29 11:12:14;;;;;;;22.70;15.10;;;;;;;9.79;88.78;100677.79;130977;1258;107749;-82
2024/02/29 11:15:26;;;;;;;23.60;15.00;;;;;;;9.83;88.71;100673.36;130883;1262;108880;-83
2024/02/29 11:18:33;;;;;;;29.40;18.60;;;;;;;9.87;88.63;100666.30;130715;1257;107042;-82
2024/02/29 11:21:39;;;;;;;27.90;18.70;;;;;;;9.89;88.45;100663.24;130711;1262;108542;-84
2024/02/29 11:24:46;;;;;;;29.90;17.80;;;;;;;9.91;88.84;100659.20;130857;1260;108459;-83
2024/02/29 11:27:53;;;;;;;31.40;18.20;;;;;;;9.90;88.21;100652.53;130828;1258;106098;-82
2024/02/29 11:31:11;;;;;;;33.70;20.50;;;;;;;9.89;88.36;100650.14;130690;1262;107549;-84
2024/02/29 11:34:18;;;;;;;28.60;17.90;;;;;;;9.89;88.32;100647.65;130782;1259;108061;-81
2024/02/29 11:37:25;;;;;;;27.10;17.10;;;;;;;9.92;88.33;100639.41;130958;1262;108684;-83
2024/02/29 11:40:34;;;;;;;27.70;17.10;;;;;;;9.95;88.28;100634.06;130893;1263;107433;-83
2024/02/29 11:43:39;;;;;;;26.90;18.50;;;;;;;9.99;88.72;100633.42;130889;1259;107537;-85
2024/02/29 11:46:49;;;;;;;29.80;17.80;;;;;;;10.03;88.50;100631.40;131189;1261;107062;-84
2024/02/29 11:49:54;;;;;;;30.60;18.30;;;;;;;10.07;88.66;100628.59;130789;1262;108816;-85
2024/02/29 11:53:00;;;;;;;31.90;20.10;;;;;;;10.10;88.48;100623.68;131180;1259;106922;-85
2024/02/29 11:56:07;;;;;;;27.10;18.30;;;;;;;10.10;88.41;100618.91;131058;1257;106536;-84
2024/02/29 11:59:15;;;;;;;25.50;14.70;;;;;;;10.07;88.30;100611.90;130942;1262;108575;-84
2024/02/29 12:02:22;;;;;;;25.60;15.40;;;;;;;10.04;88.44;100606.79;131035;1259;106991;-85
2024/02/29 12:05:27;;;;;;;29.40;18.10;;;;;;;10.06;88.62;100605.89;130999;1260;108526;-83
2024/02/29 12:08:33;;;;;;;27.20;17.20;;;;;;;10.12;88.42;100601.09;130974;1259;106695;-83
2024/02/29 12:11:39;;;;;;;30.20;19.40;;;;;;;10.19;88.87;100598.13;131061;1261;106591;-84
2024/02/29 12:14:46;;;;;;;30.10;19.40;;;;;;;10.27;88.74;100593.39;130911;1262;106908;-84
2024/02/29 12:17:53;;;;;;;37.10;22.40;;;;;;;10.31;88.72;100587.65;130756;1259;107434;-81
2024/02/29 12:20:58;;;;;;;35.30;21.70;;;;;;;10.33;88.51;100584.27;130812;1257;107911;-82
2024/02/29 12:24:07;;;;;;;37.30;22.30;;;;;;;10.32;88.51;100580.27;130873;1261;108641;-80
2024/02/29 12:27:13;;;;;;;33.20;20.50;;;;;;;10.30;88.74;100572.42;131041;1262;107491;-84
2024/02/29 12:30:20;;;;;;;33.60;19.30;;;;;;;10.31;88.82;100569.01;130796;1260;106473;-84
2024/02/29 12:33:27;;;;;;;36.30;22.40;;;;;;;10.36;88.49;100563.20;130767;1262;107841;-85
2024/02/29 12:36:33;;;;;;;37.70;22.90;;;;;;;10.41;88.70;100558.05;130790;1256;106291;-84
2024/02/29 12:39:39;;;;;;;34.90;21.60;;;;;;;10.47;88.72;100557.48;130789;1261;107661;-83
2024/02/29 12:42:45;;;;;;;36.70;23.20;;;;;;;10.51;88.61;100555.04;130802;1262;107507;-84
2024/02/29 12:45:50;;;;;;;36.60;23.30;;;;;;;10.53;88.37;100546.64;130783;1262;108515;-85
2024/02/29 12:48:56;;;;;;;35.40;22.70;;;;;;;10.54;88.32;100545.66;130799;1262;108655;-83
2024/02/29 12:52:01;;;;;;;40.40;24.30;;;;;;;10.54;88.59;100543.67;130788;1260;108458;-83
2024/02/29 12:55:08;;;;;;;36.50;20.60;;;;;;;10.53;88.58;100537.31;130830;1259;107476;-83
2024/02/29 12:58:14;;;;;;;31.30;18.80;;;;;;;10.54;88.62;100534.98;131201;1262;108750;-84
2024/02/29 13:01:20;;;;;;;37.20;21.50;;;;;;;10.59;88.60;100537.87;130823;1258;106265;-85
2024/02/29 13:04:26;;;;;;;35.10;21.70;;;;;;;10.65;88.68;100534.98;130807;1259;108924;-85
2024/02/29 13:07:31;;;;;;;34.90;20.70;;;;;;;10.72;88.43;100530.73;130781;1260;106611;-83
2024/02/29 13:10:37;;;;;;;34.80;21.50;;;;;;;10.75;88.43;100528.14;130628;1260;106597;-84
2024/02/29 13:13:43;;;;;;;32.60;20.20;;;;;;;10.74;88.30;100532.22;130780;1258;108633;-85
2024/02/29 13:16:48;;;;;;;35.90;21.00;;;;;;;10.71;88.29;100527.27;130574;1260;108312;-84
2024/02/29 13:19:54;;;;;;;34.00;19.40;;;;;;;10.71;88.35;100520.73;130634;1262;107653;-84
2024/02/29 13:23:00;;;;;;;29.90;17.70;;;;;;;10.72;88.47;100519.96;130609;1259;107683;-82
2024/02/29 13:26:06;;;;;;;32.50;18.60;;;;;;;10.76;88.66;100517.77;130615;1263;107383;-83
2024/02/29 13:29:12;;;;;;;32.10;19.20;;;;;;;10.79;88.32;100515.73;130202;1264;430811;-84
2024/02/29 13:32:18;;;;;;;33.20;19.20;;;;;;;10.84;88.29;100508.95;130545;1259;109317;-83
2024/02/29 13:35:23;;;;;;;37.20;23.30;;;;;;;10.87;88.12;100509.52;130614;1260;107397;-83
2024/02/29 13:38:29;;;;;;;34.00;20.80;;;;;;;10.88;88.02;100511.77;130625;1260;108296;-82
2024/02/29 13:41:35;;;;;;;35.40;21.20;;;;;;;10.88;88.09;100512.68;130641;1259;106788;-83
2024/02/29 13:44:42;;;;;;;33.70;19.80;;;;;;;10.86;87.92;100510.73;130706;1262;108200;-84
2024/02/29 13:47:51;;;;;;;33.60;19.30;;;;;;;10.84;88.24;100507.08;130643;1262;107325;-83
2024/02/29 13:50:57;;;;;;;34.50;19.90;;;;;;;10.82;88.10;100510.07;130794;1264;108720;-85
2024/02/29 13:54:05;;;;;;;33.20;18.70;;;;;;;10.81;88.19;100503.21;130615;1262;107627;-84